createdAt,value
2022-12-13T00:00:21.741Z,9.10
2022-12-13T00:04:09.552Z,8.40
2022-12-13T00:07:36.558Z,9.50
2022-12-13T00:11:04.241Z,9.40
2022-12-13T00:14:32.747Z,9.80
2022-12-13T00:17:59.816Z,8.10
2022-12-13T00:21:29.298Z,8.30
2022-12-13T00:28:23.895Z,8.70
2022-12-13T00:31:59.448Z,7.60
2022-12-13T00:35:27.348Z,9.10
2022-12-13T00:39:01.707Z,8.20
2022-12-13T00:42:28.456Z,7.30
2022-12-13T00:45:56.100Z,6.80
2022-12-13T00:49:22.937Z,7.00
2022-12-13T00:52:49.594Z,8.00
2022-12-13T00:56:19.636Z,7.70
2022-12-13T00:59:46.362Z,8.10
2022-12-13T01:03:21.507Z,7.30
2022-12-13T01:06:51.636Z,8.20
2022-12-13T01:10:18.653Z,6.10
2022-12-13T01:13:45.462Z,7.50
2022-12-13T01:17:12.610Z,8.00
2022-12-13T01:20:39.604Z,6.50
2022-12-13T01:24:08.248Z,7.20
2022-12-13T01:27:35.099Z,7.20
2022-12-13T01:31:03.575Z,6.70
2022-12-13T01:34:30.472Z,6.70
2022-12-13T01:37:58.265Z,6.40
2022-12-13T01:41:27.206Z,6.80
2022-12-13T01:45:06.296Z,6.30
2022-12-13T01:48:39.401Z,7.00
2022-12-13T01:52:10.446Z,6.60
2022-12-13T01:55:41.273Z,6.40
2022-12-13T01:59:11.799Z,7.00
2022-12-13T02:02:40.944Z,7.00
2022-12-13T02:06:12.916Z,7.20
2022-12-13T02:09:40.071Z,6.80
2022-12-13T02:13:06.903Z,6.60
2022-12-13T02:16:48.056Z,5.60
2022-12-13T02:20:40.004Z,6.00
2022-12-13T02:24:41.969Z,6.10
2022-12-13T02:28:31.325Z,6.40
2022-12-13T02:32:06.322Z,7.10
2022-12-13T02:35:41.787Z,6.50
2022-12-13T02:39:15.374Z,6.70
2022-12-13T02:42:49.090Z,6.60
2022-12-13T02:46:18.593Z,7.90
2022-12-13T02:53:16.877Z,7.80
2022-12-13T02:56:43.566Z,5.80
2022-12-13T03:00:14.517Z,5.90
2022-12-13T03:03:48.727Z,6.20
2022-12-13T03:07:20.887Z,6.00
2022-12-13T03:10:54.468Z,6.50
2022-12-13T03:14:23.726Z,5.70
2022-12-13T03:17:55.667Z,6.10
2022-12-13T03:21:22.411Z,5.80
2022-12-13T03:24:49.822Z,5.10
2022-12-13T03:28:16.726Z,4.90
2022-12-13T03:31:43.678Z,4.70
2022-12-13T03:35:22.075Z,5.30
2022-12-13T03:38:52.238Z,5.80
2022-12-13T03:42:19.346Z,5.50
2022-12-13T03:45:46.783Z,5.80
2022-12-13T03:49:17.121Z,5.70
2022-12-13T03:52:44.963Z,6.70
2022-12-13T03:56:12.632Z,15.40
2022-12-13T03:59:39.386Z,59.50
2022-12-13T04:03:06.595Z,54.30
2022-12-13T04:06:33.607Z,64.60
2022-12-13T04:10:00.350Z,69.90
2022-12-13T04:13:35.997Z,36.00
2022-12-13T04:17:02.660Z,15.80
2022-12-13T04:20:29.529Z,9.70
2022-12-13T04:23:56.107Z,7.70
2022-12-13T04:27:27.798Z,7.30
2022-12-13T04:30:54.814Z,7.40
2022-12-13T04:34:21.901Z,7.30
2022-12-13T04:37:48.569Z,8.30
2022-12-13T04:41:20.406Z,8.20
2022-12-13T04:44:47.000Z,7.60
2022-12-13T04:48:13.943Z,6.40
2022-12-13T04:52:01.247Z,7.10
2022-12-13T04:55:29.053Z,7.40
2022-12-13T04:58:57.393Z,7.80
2022-12-13T05:02:24.472Z,7.80
2022-12-13T05:06:31.238Z,7.10
2022-12-13T05:09:57.903Z,18.60
2022-12-13T05:13:24.448Z,41.80
2022-12-13T05:16:51.153Z,32.70
2022-12-13T05:20:18.219Z,12.10
2022-12-13T05:23:44.862Z,9.20
2022-12-13T05:27:25.612Z,10.90
2022-12-13T05:30:53.924Z,12.40
2022-12-13T05:34:21.250Z,8.70
2022-12-13T05:37:48.069Z,8.10
2022-12-13T05:41:24.691Z,8.40
2022-12-13T05:48:24.521Z,7.60
2022-12-13T05:51:51.736Z,7.00
2022-12-13T05:55:19.112Z,7.00
2022-12-13T05:58:45.880Z,7.30
2022-12-13T06:02:15.599Z,10.20
2022-12-13T06:05:46.787Z,14.00
2022-12-13T06:09:13.585Z,13.50
2022-12-13T06:12:43.131Z,17.60
2022-12-13T06:16:22.907Z,17.80
2022-12-13T06:19:51.060Z,14.00
2022-12-13T06:23:17.797Z,16.60
2022-12-13T06:26:44.990Z,14.30
2022-12-13T06:30:14.544Z,11.50
2022-12-13T06:33:41.117Z,9.40
2022-12-13T06:37:09.558Z,8.80
2022-12-13T06:40:36.508Z,8.10
2022-12-13T06:44:03.141Z,6.50
2022-12-13T06:47:31.447Z,7.90
2022-12-13T06:51:03.150Z,8.20
2022-12-13T06:54:29.962Z,7.60
2022-12-13T06:57:57.855Z,6.40
2022-12-13T07:01:25.112Z,7.40
2022-12-13T07:04:51.951Z,6.60
2022-12-13T07:08:22.161Z,6.50
2022-12-13T07:11:52.322Z,7.20
2022-12-13T07:15:19.756Z,6.50
2022-12-13T07:18:46.911Z,7.10
2022-12-13T07:22:13.517Z,7.10
2022-12-13T07:25:40.129Z,7.60
2022-12-13T07:29:07.331Z,7.00
2022-12-13T07:32:33.913Z,7.30
2022-12-13T07:36:07.102Z,6.90
2022-12-13T07:39:33.742Z,7.10
2022-12-13T07:43:00.299Z,6.10
2022-12-13T07:46:32.744Z,7.50
2022-12-13T07:50:01.672Z,6.90
2022-12-13T07:53:29.462Z,4.30
2022-12-13T07:57:04.359Z,5.70
2022-12-13T08:00:33.325Z,5.80
2022-12-13T08:03:59.998Z,5.60
2022-12-13T08:07:30.827Z,5.30
2022-12-13T08:11:01.627Z,5.90
2022-12-13T08:14:28.560Z,6.50
2022-12-13T08:17:57.814Z,6.90
2022-12-13T08:21:52.564Z,6.50
2022-12-13T08:25:12.150Z,7.70
2022-12-13T08:28:39.112Z,6.80
2022-12-13T08:32:07.933Z,7.40
2022-12-13T08:35:35.767Z,6.90
2022-12-13T08:39:04.614Z,7.50
2022-12-13T08:42:31.180Z,6.30
2022-12-13T08:46:01.322Z,5.90
2022-12-13T08:49:28.146Z,5.10
2022-12-13T08:52:55.037Z,4.60
2022-12-13T08:56:21.989Z,5.00
2022-12-13T08:59:48.598Z,5.60
2022-12-13T09:03:16.070Z,6.00
2022-12-13T09:06:44.406Z,5.20
2022-12-13T09:10:25.491Z,6.50
2022-12-13T09:13:54.752Z,5.50
2022-12-13T09:17:28.443Z,6.90
2022-12-13T09:21:11.534Z,6.30
2022-12-13T09:24:39.006Z,7.40
2022-12-13T09:28:06.756Z,7.70
2022-12-13T09:31:36.066Z,7.30
2022-12-13T09:35:02.771Z,6.40
2022-12-13T09:38:29.325Z,6.30
2022-12-13T09:42:01.202Z,5.90
2022-12-13T09:45:31.876Z,5.90
2022-12-13T09:49:03.062Z,4.60
2022-12-13T09:52:41.071Z,6.10
2022-12-13T09:56:12.995Z,6.80
2022-12-13T09:59:40.005Z,6.40
2022-12-13T10:03:14.105Z,8.00
2022-12-13T10:06:41.028Z,6.40
2022-12-13T10:10:10.635Z,12.90
2022-12-13T10:13:44.519Z,11.30
2022-12-13T10:17:21.425Z,7.90
2022-12-13T10:20:50.989Z,10.40
2022-12-13T10:28:07.772Z,7.40
2022-12-13T10:31:43.466Z,6.30
2022-12-13T10:35:24.923Z,6.30
2022-12-13T10:38:51.569Z,6.40
2022-12-13T10:42:23.608Z,6.60
2022-12-13T10:46:01.124Z,6.90
2022-12-13T10:49:33.343Z,5.90
2022-12-13T10:53:01.809Z,7.20
2022-12-13T10:56:37.638Z,6.90
2022-12-13T11:00:17.983Z,7.70
2022-12-13T11:03:44.520Z,7.90
2022-12-13T11:07:26.772Z,7.20
2022-12-13T11:11:01.472Z,8.10
2022-12-13T11:14:32.782Z,7.80
2022-12-13T11:18:02.465Z,7.30
2022-12-13T11:21:32.799Z,8.50
2022-12-13T11:25:04.275Z,7.60
2022-12-13T11:28:59.138Z,7.10
2022-12-13T11:32:40.846Z,7.50
2022-12-13T11:36:18.744Z,7.70
2022-12-13T11:39:51.017Z,7.80
2022-12-13T11:43:26.418Z,7.80
2022-12-13T11:46:56.335Z,14.80
2022-12-13T11:54:06.597Z,7.40
2022-12-13T11:57:44.730Z,8.50
2022-12-13T12:01:16.109Z,9.00
2022-12-13T12:04:53.614Z,8.50
2022-12-13T12:08:43.710Z,8.20
2022-12-13T12:12:22.183Z,8.30
2022-12-13T12:16:00.442Z,8.50
2022-12-13T12:19:31.697Z,7.90
2022-12-13T12:23:08.379Z,7.30
2022-12-13T12:26:49.805Z,8.40
2022-12-13T12:30:22.677Z,7.20
2022-12-13T12:34:00.642Z,7.60
2022-12-13T12:37:40.678Z,7.70
2022-12-13T12:41:21.082Z,7.00
2022-12-13T12:45:03.883Z,9.20
2022-12-13T12:49:01.788Z,8.00
2022-12-13T12:52:42.826Z,8.30
2022-12-13T12:56:22.524Z,8.10
2022-12-13T13:00:03.441Z,8.60
2022-12-13T13:03:35.796Z,7.00
2022-12-13T13:07:23.032Z,7.00
2022-12-13T13:10:53.298Z,7.10
2022-12-13T13:14:34.353Z,6.30
2022-12-13T13:18:01.768Z,6.90
2022-12-13T13:21:49.404Z,7.20
2022-12-13T13:25:30.354Z,7.40
2022-12-13T13:29:17.016Z,7.10
2022-12-13T13:32:56.925Z,6.90
2022-12-13T13:36:47.956Z,7.30
2022-12-13T13:40:31.305Z,8.10
2022-12-13T13:44:01.737Z,7.20
2022-12-13T13:47:40.091Z,7.30
2022-12-13T13:51:29.165Z,8.00
2022-12-13T13:55:24.646Z,46.70
2022-12-13T13:59:24.829Z,89.20
2022-12-13T14:03:33.772Z,113.20
2022-12-13T14:07:33.714Z,139.90
2022-12-13T14:11:25.875Z,77.70
2022-12-13T14:15:26.672Z,120.50
2022-12-13T14:19:23.048Z,268.80
2022-12-13T14:22:57.733Z,108.10
2022-12-13T14:26:56.899Z,86.10
2022-12-13T14:33:58.086Z,38.30
2022-12-13T14:37:30.622Z,22.20
2022-12-13T14:40:59.946Z,15.00
2022-12-13T14:44:27.905Z,10.30
2022-12-13T14:47:57.477Z,9.00
2022-12-13T14:51:34.623Z,9.30
2022-12-13T14:55:04.557Z,8.30
2022-12-13T14:58:31.313Z,9.70
2022-12-13T15:02:02.547Z,9.00
2022-12-13T15:05:34.250Z,8.50
2022-12-13T15:09:01.795Z,9.70
2022-12-13T15:12:29.951Z,8.30
2022-12-13T15:16:00.228Z,9.50
2022-12-13T15:19:30.171Z,8.70
2022-12-13T15:23:16.092Z,9.00
2022-12-13T15:26:45.232Z,12.40
2022-12-13T15:30:17.349Z,10.80
2022-12-13T15:33:48.673Z,11.20
2022-12-13T15:37:29.188Z,9.30
2022-12-13T15:40:56.963Z,10.90
2022-12-13T15:44:28.143Z,10.50
2022-12-13T15:47:55.734Z,10.70
2022-12-13T15:51:28.663Z,11.00
2022-12-13T15:55:01.794Z,11.40
2022-12-13T15:58:32.735Z,11.20
2022-12-13T16:02:00.656Z,12.70
2022-12-13T16:05:31.494Z,16.00
2022-12-13T16:09:01.817Z,21.10
2022-12-13T16:12:34.483Z,38.40
2022-12-13T16:16:08.875Z,47.20
2022-12-13T16:19:36.482Z,51.10
2022-12-13T16:23:08.835Z,45.10
2022-12-13T16:26:37.110Z,36.50
2022-12-13T16:30:11.305Z,27.20
2022-12-13T16:33:37.975Z,24.20
2022-12-13T16:37:25.207Z,25.00
2022-12-13T16:40:55.097Z,23.30
2022-12-13T16:44:30.017Z,23.10
2022-12-13T16:47:56.669Z,21.20
2022-12-13T16:51:23.831Z,18.00
2022-12-13T16:54:52.877Z,16.10
2022-12-13T16:58:22.448Z,14.00
2022-12-13T17:05:15.166Z,12.20
2022-12-13T17:08:41.730Z,13.80
2022-12-13T17:12:09.642Z,11.70
2022-12-13T17:15:36.834Z,11.10
2022-12-13T17:19:03.551Z,10.70
2022-12-13T17:22:30.447Z,11.10
2022-12-13T17:25:58.008Z,10.60
2022-12-13T17:29:26.238Z,18.50
2022-12-13T17:32:52.905Z,29.20
2022-12-13T17:36:19.682Z,46.40
2022-12-13T17:39:46.740Z,25.80
2022-12-13T17:43:22.986Z,35.00
2022-12-13T17:46:56.057Z,37.00
2022-12-13T17:50:23.655Z,49.60
2022-12-13T17:53:50.284Z,50.30
2022-12-13T17:57:17.190Z,51.20
2022-12-13T18:00:43.896Z,52.90
2022-12-13T18:04:12.602Z,44.90
2022-12-13T18:07:39.252Z,32.40
2022-12-13T18:14:54.349Z,28.40
2022-12-13T18:18:21.368Z,27.70
2022-12-13T18:21:48.312Z,21.70
2022-12-13T18:25:15.018Z,22.50
2022-12-13T18:28:42.513Z,25.10
2022-12-13T18:32:09.284Z,21.90
2022-12-13T18:35:35.954Z,25.70
2022-12-13T18:39:03.096Z,26.10
2022-12-13T18:42:31.389Z,30.20
2022-12-13T18:45:57.943Z,34.80
2022-12-13T18:49:25.043Z,32.30
2022-12-13T18:52:51.618Z,31.40
2022-12-13T18:56:19.598Z,30.80
2022-12-13T18:59:54.323Z,28.40
2022-12-13T19:03:22.230Z,27.80
2022-12-13T19:06:49.022Z,32.40
2022-12-13T19:10:15.706Z,30.30
2022-12-13T19:13:42.420Z,23.00
2022-12-13T19:17:09.014Z,24.90
2022-12-13T19:20:35.659Z,22.60
2022-12-13T19:24:02.510Z,24.20
2022-12-13T19:27:29.111Z,27.50
2022-12-13T19:30:56.085Z,29.90
2022-12-13T19:34:23.555Z,31.10
2022-12-13T19:37:50.289Z,31.70
2022-12-13T19:41:19.427Z,32.50
2022-12-13T19:44:45.988Z,33.40
2022-12-13T19:48:12.887Z,34.70
2022-12-13T19:51:40.202Z,39.30
2022-12-13T19:55:07.919Z,39.80
2022-12-13T19:58:34.970Z,37.80
2022-12-13T20:02:02.095Z,35.20
2022-12-13T20:05:29.460Z,39.60
2022-12-13T20:08:56.178Z,40.70
2022-12-13T20:12:23.427Z,43.70
2022-12-13T20:15:50.821Z,37.00
2022-12-13T20:19:18.298Z,40.10
2022-12-13T20:22:45.140Z,41.00
2022-12-13T20:26:18.080Z,43.30
2022-12-13T20:33:15.018Z,39.00
2022-12-13T20:36:42.165Z,40.10
2022-12-13T20:40:11.378Z,38.10
2022-12-13T20:43:38.430Z,40.00
2022-12-13T20:47:05.446Z,41.10
2022-12-13T20:50:32.252Z,43.30
2022-12-13T20:53:59.422Z,41.20
2022-12-13T20:57:26.039Z,38.70
2022-12-13T21:00:53.224Z,40.20
2022-12-13T21:04:20.004Z,45.10
2022-12-13T21:08:04.463Z,42.80
2022-12-13T21:11:33.442Z,48.50
2022-12-13T21:15:00.155Z,45.30
2022-12-13T21:18:26.822Z,43.60
2022-12-13T21:21:54.757Z,49.40
2022-12-13T21:25:21.487Z,44.80
2022-12-13T21:28:48.100Z,41.50
2022-12-13T21:32:14.739Z,41.10
2022-12-13T21:35:41.479Z,40.60
2022-12-13T21:39:12.924Z,40.40
2022-12-13T21:42:39.532Z,38.20
2022-12-13T21:46:08.696Z,40.90
2022-12-13T21:49:35.322Z,30.20
2022-12-13T21:53:02.068Z,33.60
2022-12-13T21:56:53.912Z,34.60
2022-12-13T22:00:21.696Z,34.00
2022-12-13T22:03:49.071Z,34.00
2022-12-13T22:07:17.541Z,33.90
2022-12-13T22:10:58.366Z,32.00
2022-12-13T22:14:25.233Z,33.60
2022-12-13T22:17:51.996Z,37.70
2022-12-13T22:21:18.747Z,34.20
2022-12-13T22:24:52.669Z,33.40
2022-12-13T22:28:21.635Z,34.20
2022-12-13T22:31:49.369Z,35.40
2022-12-13T22:35:16.799Z,31.90
2022-12-13T22:38:43.862Z,29.10
2022-12-13T22:42:10.696Z,31.00
2022-12-13T22:45:37.654Z,34.80
2022-12-13T22:49:05.189Z,35.20
2022-12-13T22:52:33.909Z,31.20
2022-12-13T22:56:08.463Z,31.50
2022-12-13T22:59:35.153Z,31.40
2022-12-13T23:03:01.900Z,34.10
2022-12-13T23:06:30.302Z,34.60
2022-12-13T23:09:57.890Z,34.50
2022-12-13T23:13:24.850Z,33.10
2022-12-13T23:16:51.732Z,30.50
2022-12-13T23:20:18.984Z,36.10
2022-12-13T23:23:46.304Z,35.10
2022-12-13T23:27:13.031Z,35.60
2022-12-13T23:30:39.984Z,35.60
2022-12-13T23:34:07.300Z,41.40
2022-12-13T23:37:35.538Z,38.70
2022-12-13T23:41:08.169Z,36.10
2022-12-13T23:44:35.277Z,33.90
2022-12-13T23:48:01.802Z,34.50
2022-12-13T23:51:28.657Z,33.90
2022-12-13T23:54:55.849Z,38.10
2022-12-13T23:58:24.242Z,40.70
